sensor_id;sensor_type;location;lat;lon;timestamp;pressure;altitude;pressure_sealevel;temperature;humidity
61961;BME280;47923;42.506;24.192;2022-08-01T00:01:01;95262.50;;;17.76;63.18
61961;BME280;47923;42.506;24.192;2022-08-01T00:03:27;95306.75;;;17.98;62.43
61961;BME280;47923;42.506;24.192;2022-08-01T00:05:52;95241.19;;;17.26;63.56
61961;BME280;47923;42.506;24.192;2022-08-01T00:08:17;95282.53;;;17.62;63.63
61961;BME280;47923;42.506;24.192;2022-08-01T00:10:43;95351.38;;;17.87;62.82
61961;BME280;47923;42.506;24.192;2022-08-01T00:13:08;95213.31;;;17.07;64.70
61961;BME280;47923;42.506;24.192;2022-08-01T00:15:34;95349.53;;;17.77;64.56
61961;BME280;47923;42.506;24.192;2022-08-01T00:18:00;95231.72;;;17.00;65.11
61961;BME280;47923;42.506;24.192;2022-08-01T00:20:26;95353.41;;;17.80;65.72
61961;BME280;47923;42.506;24.192;2022-08-01T00:22:52;95356.16;;;17.80;65.27
61961;BME280;47923;42.506;24.192;2022-08-01T00:25:17;95237.59;;;16.95;65.30
61961;BME280;47923;42.506;24.192;2022-08-01T00:27:43;95234.09;;;16.94;65.76
61961;BME280;47923;42.506;24.192;2022-08-01T00:30:08;95174.44;;;16.55;66.07
61961;BME280;47923;42.506;24.192;2022-08-01T00:32:34;95239.97;;;16.93;65.67
61961;BME280;47923;42.506;24.192;2022-08-01T00:34:59;95096.56;;;16.06;65.07
61961;BME280;47923;42.506;24.192;2022-08-01T00:37:25;95064.03;;;15.88;65.71
61961;BME280;47923;42.506;24.192;2022-08-01T00:39:50;95289.63;;;17.18;65.63
61961;BME280;47923;42.506;24.192;2022-08-01T00:42:16;95107.88;;;16.04;65.94
61961;BME280;47923;42.506;24.192;2022-08-01T00:44:41;95240.03;;;16.85;66.08
61961;BME280;47923;42.506;24.192;2022-08-01T00:47:07;95347.94;;;17.42;66.33
61961;BME280;47923;42.506;24.192;2022-08-01T00:49:33;95187.41;;;16.40;66.04
61961;BME280;47923;42.506;24.192;2022-08-01T00:51:59;95338.56;;;17.39;66.59
61961;BME280;47923;42.506;24.192;2022-08-01T00:54:26;95342.81;;;17.44;65.87
61961;BME280;47923;42.506;24.192;2022-08-01T00:56:53;95253.69;;;16.85;65.99
61961;BME280;47923;42.506;24.192;2022-08-01T00:59:21;95341.69;;;17.42;66.53
61961;BME280;47923;42.506;24.192;2022-08-01T01:01:46;95102.53;;;15.90;66.44
61961;BME280;47923;42.506;24.192;2022-08-01T01:04:12;95339.44;;;17.29;67.02
61961;BME280;47923;42.506;24.192;2022-08-01T01:15:14;95312.00;;;17.02;67.47
61961;BME280;47923;42.506;24.192;2022-08-01T01:17:52;95330.72;;;17.00;67.23
61961;BME280;47923;42.506;24.192;2022-08-01T01:20:21;95320.63;;;16.97;67.63
61961;BME280;47923;42.506;24.192;2022-08-01T01:23:10;95312.06;;;16.95;67.38
61961;BME280;47923;42.506;24.192;2022-08-01T01:28:17;95309.84;;;16.79;68.89
61961;BME280;47923;42.506;24.192;2022-08-01T01:30:49;95237.41;;;16.19;68.70
61961;BME280;47923;42.506;24.192;2022-08-01T01:33:19;95143.66;;;15.40;69.16
61961;BME280;47923;42.506;24.192;2022-08-01T01:35:48;95228.22;;;15.92;69.61
61961;BME280;47923;42.506;24.192;2022-08-01T01:38:21;95285.63;;;16.26;69.87
61961;BME280;47923;42.506;24.192;2022-08-01T01:40:49;95280.59;;;16.21;69.91
61961;BME280;47923;42.506;24.192;2022-08-01T01:43:16;95218.19;;;15.74;69.77
61961;BME280;47923;42.506;24.192;2022-08-01T01:45:44;95236.81;;;15.87;70.02
61961;BME280;47923;42.506;24.192;2022-08-01T01:48:14;95308.63;;;16.21;70.52
61961;BME280;47923;42.506;24.192;2022-08-01T01:50:42;95260.97;;;15.78;70.30
61961;BME280;47923;42.506;24.192;2022-08-01T01:53:09;95285.41;;;15.92;70.71
61961;BME280;47923;42.506;24.192;2022-08-01T01:55:38;95235.75;;;15.59;70.95
61961;BME280;47923;42.506;24.192;2022-08-01T01:58:06;95268.03;;;15.64;70.57
61961;BME280;47923;42.506;24.192;2022-08-01T02:00:33;94991.47;;;13.92;70.45
61961;BME280;47923;42.506;24.192;2022-08-01T02:03:01;95186.91;;;15.09;70.73
61961;BME280;47923;42.506;24.192;2022-08-01T02:05:28;95198.63;;;14.99;70.25
61961;BME280;47923;42.506;24.192;2022-08-01T02:07:54;95012.00;;;14.07;69.46
61961;BME280;47923;42.506;24.192;2022-08-01T02:10:20;95117.50;;;14.69;68.81
61961;BME280;47923;42.506;24.192;2022-08-01T02:12:48;95312.25;;;15.97;68.25
61961;BME280;47923;42.506;24.192;2022-08-01T02:15:15;95321.56;;;15.99;67.94
61961;BME280;47923;42.506;24.192;2022-08-01T02:17:45;94857.38;;;13.07;67.47
61961;BME280;47923;42.506;24.192;2022-08-01T02:20:13;95300.22;;;15.94;68.30
61961;BME280;47923;42.506;24.192;2022-08-01T02:22:52;95195.81;;;15.24;68.14
61961;BME280;47923;42.506;24.192;2022-08-01T02:28:04;95309.63;;;15.79;68.03
61961;BME280;47923;42.506;24.192;2022-08-01T02:30:33;94562.81;;;11.04;67.24
61961;BME280;47923;42.506;24.192;2022-08-01T02:33:07;95206.34;;;15.15;66.63
61961;BME280;47923;42.506;24.192;2022-08-01T02:35:38;95212.91;;;15.28;66.20
61961;BME280;47923;42.506;24.192;2022-08-01T02:38:05;95250.16;;;15.53;65.97
61961;BME280;47923;42.506;24.192;2022-08-01T02:40:33;95285.03;;;15.86;65.78
61961;BME280;47923;42.506;24.192;2022-08-01T02:43:01;95301.00;;;15.91;64.91
61961;BME280;47923;42.506;24.192;2022-08-01T02:45:28;95205.88;;;15.38;64.79
61961;BME280;47923;42.506;24.192;2022-08-01T02:48:03;95199.34;;;15.14;65.06
61961;BME280;47923;42.506;24.192;2022-08-01T02:50:31;95314.22;;;15.86;65.40
61961;BME280;47923;42.506;24.192;2022-08-01T02:52:59;95210.59;;;15.23;65.49
61961;BME280;47923;42.506;24.192;2022-08-01T02:55:25;95282.44;;;15.61;65.36
61961;BME280;47923;42.506;24.192;2022-08-01T02:57:53;95143.50;;;14.74;65.34
61961;BME280;47923;42.506;24.192;2022-08-01T03:00:21;95309.59;;;15.83;65.53
61961;BME280;47923;42.506;24.192;2022-08-01T03:02:50;95175.63;;;15.11;64.87
61961;BME280;47923;42.506;24.192;2022-08-01T03:05:17;95295.94;;;15.90;65.02
61961;BME280;47923;42.506;24.192;2022-08-01T03:07:43;95238.06;;;15.61;65.31
61961;BME280;47923;42.506;24.192;2022-08-01T03:10:09;95270.69;;;15.79;65.70
61961;BME280;47923;42.506;24.192;2022-08-01T03:12:36;95238.06;;;15.61;66.07
61961;BME280;47923;42.506;24.192;2022-08-01T03:15:07;95208.59;;;15.38;65.90
61961;BME280;47923;42.506;24.192;2022-08-01T03:17:36;95172.94;;;15.14;66.24
61961;BME280;47923;42.506;24.192;2022-08-01T03:20:03;95266.47;;;15.67;66.54
61961;BME280;47923;42.506;24.192;2022-08-01T03:22:31;95016.66;;;13.99;66.75
61961;BME280;47923;42.506;24.192;2022-08-01T03:24:58;95071.69;;;14.46;65.71
61961;BME280;47923;42.506;24.192;2022-08-01T03:27:26;95202.78;;;15.32;66.47
61961;BME280;47923;42.506;24.192;2022-08-01T03:29:55;95224.06;;;15.55;65.82
61961;BME280;47923;42.506;24.192;2022-08-01T03:32:22;95296.69;;;15.97;65.02
61961;BME280;47923;42.506;24.192;2022-08-01T03:34:48;95288.09;;;16.02;65.21
61961;BME280;47923;42.506;24.192;2022-08-01T03:40:05;95289.97;;;16.16;63.97
61961;BME280;47923;42.506;24.192;2022-08-01T03:42:36;95275.88;;;16.28;63.00
61961;BME280;47923;42.506;24.192;2022-08-01T03:45:11;95115.00;;;15.14;63.36
61961;BME280;47923;42.506;24.192;2022-08-01T03:47:42;95237.03;;;16.14;62.72
61961;BME280;47923;42.506;24.192;2022-08-01T03:50:10;95229.94;;;16.27;61.99
61961;BME280;47923;42.506;24.192;2022-08-01T03:52:37;95165.81;;;16.08;61.27
61961;BME280;47923;42.506;24.192;2022-08-01T03:55:06;95301.91;;;16.96;60.55
61961;BME280;47923;42.506;24.192;2022-08-01T03:57:33;95234.69;;;16.71;61.16
61961;BME280;47923;42.506;24.192;2022-08-01T03:59:59;95278.69;;;17.18;61.28
61961;BME280;47923;42.506;24.192;2022-08-01T04:02:27;95190.63;;;16.76;60.91
61961;BME280;47923;42.506;24.192;2022-08-01T04:04:53;95115.50;;;17.36;57.95
61961;BME280;47923;42.506;24.192;2022-08-01T04:07:37;95188.25;;;21.35;46.14
61961;BME280;47923;42.506;24.192;2022-08-01T04:10:05;95177.84;;;23.86;40.27
61961;BME280;47923;42.506;24.192;2022-08-01T04:12:32;95246.50;;;26.09;36.18
61961;BME280;47923;42.506;24.192;2022-08-01T04:14:59;95247.25;;;27.27;33.17
61961;BME280;47923;42.506;24.192;2022-08-01T04:17:24;95175.25;;;27.87;31.08
61961;BME280;47923;42.506;24.192;2022-08-01T04:19:50;95267.97;;;29.13;30.20
61961;BME280;47923;42.506;24.192;2022-08-01T04:22:15;95187.44;;;29.65;28.47
61961;BME280;47923;42.506;24.192;2022-08-01T04:24:42;95268.69;;;30.36;27.83
61961;BME280;47923;42.506;24.192;2022-08-01T04:27:13;95232.78;;;30.43;26.82
61961;BME280;47923;42.506;24.192;2022-08-01T04:29:40;95156.84;;;29.96;26.34
61961;BME280;47923;42.506;24.192;2022-08-01T04:32:08;95198.81;;;30.45;26.13
61961;BME280;47923;42.506;24.192;2022-08-01T04:34:38;95245.34;;;32.04;24.13
61961;BME280;47923;42.506;24.192;2022-08-01T04:37:07;95083.31;;;31.82;23.57
61961;BME280;47923;42.506;24.192;2022-08-01T04:39:35;95195.41;;;33.54;22.53
61961;BME280;47923;42.506;24.192;2022-08-01T04:42:04;95260.50;;;33.71;21.83
61961;BME280;47923;42.506;24.192;2022-08-01T04:44:31;95209.50;;;33.20;22.15
61961;BME280;47923;42.506;24.192;2022-08-01T04:46:59;95090.34;;;32.72;21.53
61961;BME280;47923;42.506;24.192;2022-08-01T04:49:25;95203.38;;;33.86;21.10
61961;BME280;47923;42.506;24.192;2022-08-01T04:51:55;95264.00;;;33.94;21.67
61961;BME280;47923;42.506;24.192;2022-08-01T04:54:26;95232.19;;;34.63;20.55
61961;BME280;47923;42.506;24.192;2022-08-01T04:56:55;95087.50;;;33.83;20.57
61961;BME280;47923;42.506;24.192;2022-08-01T04:59:27;95052.13;;;34.46;19.60
61961;BME280;47923;42.506;24.192;2022-08-01T05:02:09;95271.00;;;35.19;19.77
61961;BME280;47923;42.506;24.192;2022-08-01T05:04:35;95232.38;;;34.41;20.38
61961;BME280;47923;42.506;24.192;2022-08-01T05:07:02;95191.13;;;33.94;20.69
61961;BME280;47923;42.506;24.192;2022-08-01T05:09:28;95251.47;;;34.36;20.76
61961;BME280;47923;42.506;24.192;2022-08-01T05:11:53;95233.63;;;34.45;20.33
61961;BME280;47923;42.506;24.192;2022-08-01T05:14:19;95245.88;;;34.72;19.62
61961;BME280;47923;42.506;24.192;2022-08-01T05:16:45;95264.72;;;35.32;19.22
61961;BME280;47923;42.506;24.192;2022-08-01T05:19:11;95266.94;;;36.07;18.91
61961;BME280;47923;42.506;24.192;2022-08-01T05:21:37;95263.81;;;36.29;18.77
61961;BME280;47923;42.506;24.192;2022-08-01T05:24:04;95097.53;;;35.12;18.22
61961;BME280;47923;42.506;24.192;2022-08-01T05:26:29;95213.53;;;36.58;18.12
61961;BME280;47923;42.506;24.192;2022-08-01T05:28:55;95203.19;;;35.77;18.60
61961;BME280;47923;42.506;24.192;2022-08-01T05:31:20;95233.50;;;36.73;17.90
61961;BME280;47923;42.506;24.192;2022-08-01T05:33:46;95173.75;;;36.67;17.59
61961;BME280;47923;42.506;24.192;2022-08-01T05:36:11;95216.69;;;38.26;16.57
61961;BME280;47923;42.506;24.192;2022-08-01T05:38:36;95154.53;;;37.98;16.01
61961;BME280;47923;42.506;24.192;2022-08-01T05:41:02;95117.28;;;38.33;15.94
61961;BME280;47923;42.506;24.192;2022-08-01T05:43:27;95101.97;;;38.99;15.37
61961;BME280;47923;42.506;24.192;2022-08-01T05:45:53;95223.28;;;40.80;14.34
61961;BME280;47923;42.506;24.192;2022-08-01T05:48:18;95224.66;;;40.20;15.13
61961;BME280;47923;42.506;24.192;2022-08-01T05:50:44;95246.59;;;40.42;14.36
61961;BME280;47923;42.506;24.192;2022-08-01T05:53:09;95147.63;;;39.91;14.85
61961;BME280;47923;42.506;24.192;2022-08-01T05:55:35;95275.66;;;39.99;14.70
61961;BME280;47923;42.506;24.192;2022-08-01T05:58:02;95213.91;;;40.11;14.58
61961;BME280;47923;42.506;24.192;2022-08-01T06:00:27;95236.84;;;40.51;14.02
61961;BME280;47923;42.506;24.192;2022-08-01T06:02:53;95094.66;;;39.40;14.06
61961;BME280;47923;42.506;24.192;2022-08-01T06:05:18;95214.38;;;40.83;13.33
61961;BME280;47923;42.506;24.192;2022-08-01T06:07:44;95151.50;;;41.31;12.81
61961;BME280;47923;42.506;24.192;2022-08-01T06:10:09;95216.31;;;40.96;13.29
61961;BME280;47923;42.506;24.192;2022-08-01T06:12:35;95125.22;;;40.00;13.55
61961;BME280;47923;42.506;24.192;2022-08-01T06:15:03;95268.56;;;40.72;13.96
61961;BME280;47923;42.506;24.192;2022-08-01T06:17:28;95229.03;;;40.36;13.70
61961;BME280;47923;42.506;24.192;2022-08-01T06:19:54;95192.59;;;39.73;13.52
61961;BME280;47923;42.506;24.192;2022-08-01T06:22:19;95207.97;;;40.68;13.22
61961;BME280;47923;42.506;24.192;2022-08-01T06:24:44;95220.81;;;40.02;13.84
61961;BME280;47923;42.506;24.192;2022-08-01T06:27:10;95137.34;;;40.31;12.85
61961;BME280;47923;42.506;24.192;2022-08-01T06:29:35;95219.69;;;41.18;13.12
61961;BME280;47923;42.506;24.192;2022-08-01T06:32:01;95209.50;;;41.37;13.06
61961;BME280;47923;42.506;24.192;2022-08-01T06:34:26;95256.59;;;42.76;11.80
61961;BME280;47923;42.506;24.192;2022-08-01T06:36:52;95165.97;;;41.58;12.46
61961;BME280;47923;42.506;24.192;2022-08-01T06:39:17;95214.22;;;40.89;12.92
61961;BME280;47923;42.506;24.192;2022-08-01T06:41:43;95104.44;;;39.83;13.15
61961;BME280;47923;42.506;24.192;2022-08-01T06:44:11;95191.63;;;40.07;13.37
61961;BME280;47923;42.506;24.192;2022-08-01T06:46:37;95203.44;;;40.49;13.27
61961;BME280;47923;42.506;24.192;2022-08-01T06:49:02;95223.44;;;40.59;13.76
61961;BME280;47923;42.506;24.192;2022-08-01T06:51:28;95178.16;;;40.90;12.43
61961;BME280;47923;42.506;24.192;2022-08-01T06:53:53;95262.50;;;40.53;12.83
61961;BME280;47923;42.506;24.192;2022-08-01T06:56:19;95255.69;;;38.90;14.01
61961;BME280;47923;42.506;24.192;2022-08-01T06:58:44;95252.41;;;40.29;13.87
61961;BME280;47923;42.506;24.192;2022-08-01T07:01:10;95245.38;;;40.07;13.07
61961;BME280;47923;42.506;24.192;2022-08-01T07:03:35;95243.50;;;41.07;12.96
61961;BME280;47923;42.506;24.192;2022-08-01T07:06:01;95229.28;;;41.53;12.54
61961;BME280;47923;42.506;24.192;2022-08-01T07:08:26;95256.72;;;41.50;12.54
61961;BME280;47923;42.506;24.192;2022-08-01T07:10:52;95223.75;;;41.78;12.25
61961;BME280;47923;42.506;24.192;2022-08-01T07:13:17;95181.72;;;40.67;12.73
61961;BME280;47923;42.506;24.192;2022-08-01T07:15:47;95254.06;;;42.81;11.57
61961;BME280;47923;42.506;24.192;2022-08-01T07:18:12;95210.25;;;41.38;12.19
61961;BME280;47923;42.506;24.192;2022-08-01T07:20:38;95245.16;;;40.64;12.85
61961;BME280;47923;42.506;24.192;2022-08-01T07:23:03;95167.22;;;40.71;12.52
61961;BME280;47923;42.506;24.192;2022-08-01T07:25:29;95181.56;;;40.96;12.88
61961;BME280;47923;42.506;24.192;2022-08-01T07:27:55;95210.44;;;41.32;12.80
61961;BME280;47923;42.506;24.192;2022-08-01T07:30:20;95073.28;;;41.20;12.31
61961;BME280;47923;42.506;24.192;2022-08-01T07:32:46;95176.16;;;42.16;11.77
61961;BME280;47923;42.506;24.192;2022-08-01T07:35:11;95230.75;;;42.90;11.55
61961;BME280;47923;42.506;24.192;2022-08-01T07:37:37;95094.84;;;42.61;11.72
61961;BME280;47923;42.506;24.192;2022-08-01T07:40:03;94995.31;;;39.95;12.53
61961;BME280;47923;42.506;24.192;2022-08-01T07:42:30;95154.91;;;41.22;12.56
61961;BME280;47923;42.506;24.192;2022-08-01T07:44:56;95171.53;;;41.10;12.47
61961;BME280;47923;42.506;24.192;2022-08-01T07:47:25;95236.06;;;41.57;12.76
61961;BME280;47923;42.506;24.192;2022-08-01T07:49:51;95065.28;;;40.78;12.82
61961;BME280;47923;42.506;24.192;2022-08-01T07:52:16;95166.44;;;42.77;11.53
61961;BME280;47923;42.506;24.192;2022-08-01T07:54:42;95213.28;;;44.49;10.83
61961;BME280;47923;42.506;24.192;2022-08-01T07:57:07;95143.53;;;43.00;11.25
61961;BME280;47923;42.506;24.192;2022-08-01T07:59:33;95198.81;;;42.49;12.24
61961;BME280;47923;42.506;24.192;2022-08-01T08:01:59;95166.72;;;42.89;11.87
61961;BME280;47923;42.506;24.192;2022-08-01T08:04:26;95083.09;;;42.07;12.01
61961;BME280;47923;42.506;24.192;2022-08-01T08:06:51;95168.44;;;42.34;12.30
61961;BME280;47923;42.506;24.192;2022-08-01T08:09:18;95220.06;;;42.00;12.61
61961;BME280;47923;42.506;24.192;2022-08-01T08:11:44;95172.47;;;41.91;12.64
61961;BME280;47923;42.506;24.192;2022-08-01T08:14:10;95173.03;;;41.19;12.65
61961;BME280;47923;42.506;24.192;2022-08-01T08:16:35;95176.53;;;41.65;12.13
61961;BME280;47923;42.506;24.192;2022-08-01T08:19:01;95159.28;;;40.54;12.73
61961;BME280;47923;42.506;24.192;2022-08-01T08:21:26;95175.13;;;40.49;13.14
61961;BME280;47923;42.506;24.192;2022-08-01T08:23:52;95216.91;;;43.36;11.29
61961;BME280;47923;42.506;24.192;2022-08-01T08:26:36;95153.88;;;42.63;11.39
61961;BME280;47923;42.506;24.192;2022-08-01T08:29:02;95172.22;;;41.49;12.12
61961;BME280;47923;42.506;24.192;2022-08-01T08:31:28;95210.31;;;41.78;12.47
61961;BME280;47923;42.506;24.192;2022-08-01T08:33:53;95210.59;;;42.05;11.95
61961;BME280;47923;42.506;24.192;2022-08-01T08:36:28;95204.63;;;43.09;11.87
61961;BME280;47923;42.506;24.192;2022-08-01T08:38:54;95160.25;;;42.71;11.63
61961;BME280;47923;42.506;24.192;2022-08-01T08:44:07;95134.38;;;40.60;13.32
61961;BME280;47923;42.506;24.192;2022-08-01T08:46:34;95140.66;;;42.58;11.96
61961;BME280;47923;42.506;24.192;2022-08-01T08:49:05;95099.19;;;42.05;11.90
61961;BME280;47923;42.506;24.192;2022-08-01T08:51:33;95132.25;;;43.62;10.91
61961;BME280;47923;42.506;24.192;2022-08-01T08:54:00;95080.59;;;43.55;11.13
61961;BME280;47923;42.506;24.192;2022-08-01T08:56:28;95170.13;;;44.53;10.79
61961;BME280;47923;42.506;24.192;2022-08-01T08:58:59;95190.78;;;43.99;11.42
61961;BME280;47923;42.506;24.192;2022-08-01T09:01:25;95176.72;;;44.82;10.63
61961;BME280;47923;42.506;24.192;2022-08-01T09:03:50;95162.38;;;43.82;11.29
61961;BME280;47923;42.506;24.192;2022-08-01T09:06:17;95160.03;;;44.79;10.59
61961;BME280;47923;42.506;24.192;2022-08-01T09:08:42;95203.69;;;45.28;10.39
61961;BME280;47923;42.506;24.192;2022-08-01T09:11:08;95194.97;;;44.79;10.46
61961;BME280;47923;42.506;24.192;2022-08-01T09:13:33;95174.91;;;44.87;10.72
61961;BME280;47923;42.506;24.192;2022-08-01T09:15:58;95016.78;;;39.75;13.22
61961;BME280;47923;42.506;24.192;2022-08-01T09:21:19;95199.44;;;41.52;12.55
61961;BME280;47923;42.506;24.192;2022-08-01T09:23:53;95194.72;;;42.02;12.55
61961;BME280;47923;42.506;24.192;2022-08-01T09:26:22;95202.88;;;42.88;12.10
61961;BME280;47923;42.506;24.192;2022-08-01T09:28:53;95137.66;;;42.56;12.00
61961;BME280;47923;42.506;24.192;2022-08-01T09:31:18;95183.19;;;44.92;10.74
61961;BME280;47923;42.506;24.192;2022-08-01T09:33:55;95142.81;;;43.51;11.22
61961;BME280;47923;42.506;24.192;2022-08-01T09:36:24;95133.03;;;42.10;11.99
61961;BME280;47923;42.506;24.192;2022-08-01T09:38:52;95189.25;;;42.69;11.88
61961;BME280;47923;42.506;24.192;2022-08-01T09:41:28;95071.28;;;41.93;12.48
61961;BME280;47923;42.506;24.192;2022-08-01T09:43:55;95191.69;;;42.40;11.80
61961;BME280;47923;42.506;24.192;2022-08-01T09:49:30;95174.75;;;44.75;10.09
61961;BME280;47923;42.506;24.192;2022-08-01T09:51:57;95151.31;;;45.04;9.81
61961;BME280;47923;42.506;24.192;2022-08-01T09:54:32;95139.09;;;43.93;10.66
61961;BME280;47923;42.506;24.192;2022-08-01T09:57:27;95102.47;;;42.93;11.22
61961;BME280;47923;42.506;24.192;2022-08-01T09:59:56;95180.19;;;42.63;11.47
61961;BME280;47923;42.506;24.192;2022-08-01T10:02:38;95187.84;;;42.45;11.56
61961;BME280;47923;42.506;24.192;2022-08-01T10:05:06;94991.16;;;43.39;11.13
61961;BME280;47923;42.506;24.192;2022-08-01T10:07:33;95156.47;;;44.51;10.36
61961;BME280;47923;42.506;24.192;2022-08-01T10:10:11;95172.63;;;43.25;11.36
61961;BME280;47923;42.506;24.192;2022-08-01T10:12:38;95115.81;;;42.66;11.14
61961;BME280;47923;42.506;24.192;2022-08-01T10:15:05;95129.31;;;41.52;12.26
61961;BME280;47923;42.506;24.192;2022-08-01T10:17:33;95113.91;;;41.30;11.88
61961;BME280;47923;42.506;24.192;2022-08-01T10:20:01;95062.75;;;41.93;11.91
61961;BME280;47923;42.506;24.192;2022-08-01T10:22:30;95162.78;;;43.61;11.21
61961;BME280;47923;42.506;24.192;2022-08-01T10:24:56;95009.22;;;41.98;11.39
61961;BME280;47923;42.506;24.192;2022-08-01T10:27:24;95174.47;;;42.88;11.73
61961;BME280;47923;42.506;24.192;2022-08-01T10:29:59;94777.03;;;40.84;11.42
61961;BME280;47923;42.506;24.192;2022-08-01T10:32:34;95163.66;;;41.64;12.50
61961;BME280;47923;42.506;24.192;2022-08-01T10:35:06;95158.47;;;41.37;12.40
61961;BME280;47923;42.506;24.192;2022-08-01T10:37:33;95176.03;;;40.37;13.38
61961;BME280;47923;42.506;24.192;2022-08-01T10:40:00;94914.78;;;37.41;14.77
61961;BME280;47923;42.506;24.192;2022-08-01T10:42:26;94923.13;;;37.12;15.45
61961;BME280;47923;42.506;24.192;2022-08-01T10:44:54;94817.38;;;35.42;15.75
61961;BME280;47923;42.506;24.192;2022-08-01T10:47:40;95096.69;;;36.24;16.77
61961;BME280;47923;42.506;24.192;2022-08-01T10:50:19;95069.31;;;35.23;17.75
61961;BME280;47923;42.506;24.192;2022-08-01T10:53:09;95152.69;;;35.53;18.01
61961;BME280;47923;42.506;24.192;2022-08-01T11:01:22;95147.59;;;33.88;20.25
61961;BME280;47923;42.506;24.192;2022-08-01T11:06:39;95067.00;;;33.28;20.54
61961;BME280;47923;42.506;24.192;2022-08-01T11:09:18;95131.81;;;33.43;20.63
61961;BME280;47923;42.506;24.192;2022-08-01T11:12:20;94770.72;;;30.64;21.25
61961;BME280;47923;42.506;24.192;2022-08-01T11:17:42;94887.47;;;30.40;22.51
61961;BME280;47923;42.506;24.192;2022-08-01T11:25:25;95082.38;;;31.08;22.73
61961;BME280;47923;42.506;24.192;2022-08-01T11:30:53;95118.47;;;31.34;23.01
61961;BME280;47923;42.506;24.192;2022-08-01T11:41:11;95133.53;;;30.94;23.50
61961;BME280;47923;42.506;24.192;2022-08-01T11:54:41;94911.97;;;29.39;24.01
61961;BME280;47923;42.506;24.192;2022-08-01T11:57:21;94905.22;;;29.20;23.74
61961;BME280;47923;42.506;24.192;2022-08-01T11:59:53;95136.97;;;30.72;23.90
61961;BME280;47923;42.506;24.192;2022-08-01T12:07:28;94910.38;;;28.75;24.51
61961;BME280;47923;42.506;24.192;2022-08-01T12:10:20;95134.00;;;29.87;25.00
61961;BME280;47923;42.506;24.192;2022-08-01T12:12:52;95047.03;;;29.40;24.89
61961;BME280;47923;42.506;24.192;2022-08-01T12:15:19;94978.13;;;28.57;25.37
61961;BME280;47923;42.506;24.192;2022-08-01T12:17:56;95017.81;;;28.57;26.08
61961;BME280;47923;42.506;24.192;2022-08-01T12:20:22;95131.78;;;29.65;25.88
61961;BME280;47923;42.506;24.192;2022-08-01T12:22:56;95141.66;;;29.66;25.63
61961;BME280;47923;42.506;24.192;2022-08-01T12:25:22;95128.72;;;29.42;25.83
61961;BME280;47923;42.506;24.192;2022-08-01T12:27:48;95072.41;;;28.81;26.05
61961;BME280;47923;42.506;24.192;2022-08-01T12:30:21;95008.88;;;28.33;26.16
61961;BME280;47923;42.506;24.192;2022-08-01T12:32:50;95131.09;;;29.03;26.58
61961;BME280;47923;42.506;24.192;2022-08-01T12:35:24;95017.56;;;28.61;26.45
61961;BME280;47923;42.506;24.192;2022-08-01T12:37:52;95130.66;;;29.31;26.15
61961;BME280;47923;42.506;24.192;2022-08-01T12:40:28;95112.78;;;29.17;26.60
61961;BME280;47923;42.506;24.192;2022-08-01T12:42:58;95063.53;;;28.42;26.83
61961;BME280;47923;42.506;24.192;2022-08-01T12:45:26;95071.44;;;28.28;26.99
61961;BME280;47923;42.506;24.192;2022-08-01T12:47:53;95020.72;;;28.13;27.15
61961;BME280;47923;42.506;24.192;2022-08-01T12:50:24;94977.84;;;28.14;26.67
61961;BME280;47923;42.506;24.192;2022-08-01T12:52:51;94846.44;;;27.47;26.52
61961;BME280;47923;42.506;24.192;2022-08-01T12:55:19;94996.75;;;28.51;26.07
61961;BME280;47923;42.506;24.192;2022-08-01T12:57:47;95067.78;;;29.18;26.17
61961;BME280;47923;42.506;24.192;2022-08-01T13:00:25;94934.88;;;28.76;25.64
61961;BME280;47923;42.506;24.192;2022-08-01T13:03:05;95123.13;;;29.89;25.17
61961;BME280;47923;42.506;24.192;2022-08-01T13:05:50;95119.63;;;29.94;25.11
61961;BME280;47923;42.506;24.192;2022-08-01T13:10:41;94918.66;;;28.49;26.29
61961;BME280;47923;42.506;24.192;2022-08-01T13:13:08;95121.53;;;29.77;26.19
61961;BME280;47923;42.506;24.192;2022-08-01T13:15:36;95103.94;;;29.96;25.64
61961;BME280;47923;42.506;24.192;2022-08-01T13:18:27;95113.59;;;30.27;25.95
61961;BME280;47923;42.506;24.192;2022-08-01T13:23:42;95062.31;;;29.82;25.66
61961;BME280;47923;42.506;24.192;2022-08-01T13:26:48;95099.31;;;30.14;25.78
61961;BME280;47923;42.506;24.192;2022-08-01T13:29:18;95042.06;;;29.81;25.83
61961;BME280;47923;42.506;24.192;2022-08-01T13:31:44;95122.78;;;30.07;25.97
61961;BME280;47923;42.506;24.192;2022-08-01T13:34:10;95105.53;;;29.71;26.50
61961;BME280;47923;42.506;24.192;2022-08-01T13:36:36;95108.84;;;29.76;26.24
61961;BME280;47923;42.506;24.192;2022-08-01T13:39:02;95049.31;;;29.67;25.48
61961;BME280;47923;42.506;24.192;2022-08-01T13:41:46;95085.19;;;30.23;25.84
61961;BME280;47923;42.506;24.192;2022-08-01T13:44:12;94880.59;;;29.38;24.79
61961;BME280;47923;42.506;24.192;2022-08-01T13:46:39;94954.84;;;29.90;24.75
61961;BME280;47923;42.506;24.192;2022-08-01T13:49:05;94880.25;;;29.62;24.63
61961;BME280;47923;42.506;24.192;2022-08-01T13:51:32;95023.69;;;30.75;24.32
61961;BME280;47923;42.506;24.192;2022-08-01T13:53:57;95024.50;;;30.87;24.20
61961;BME280;47923;42.506;24.192;2022-08-01T13:56:23;94908.22;;;30.39;24.12
61961;BME280;47923;42.506;24.192;2022-08-01T13:58:50;95050.56;;;30.84;23.92
61961;BME280;47923;42.506;24.192;2022-08-01T14:01:15;95045.22;;;30.32;25.12
61961;BME280;47923;42.506;24.192;2022-08-01T14:03:41;95054.31;;;29.89;24.89
61961;BME280;47923;42.506;24.192;2022-08-01T14:06:06;95041.44;;;29.97;25.01
61961;BME280;47923;42.506;24.192;2022-08-01T14:08:32;94956.72;;;29.09;25.06
61961;BME280;47923;42.506;24.192;2022-08-01T14:10:58;95050.06;;;29.42;25.58